OPSK

Sukkur Airport

Mirpur Khas, Pakistan
TAF OPSK 170400Z 1706/1806 09008KT 3000 HZ NSC FM 171900 VRB03KT 2000 BR NSC TEMPO 1801/1805 00000KT 0800 FG SCT020
Issued Valid From Valid To
Nov-17 @ 04:00 UTC
(5 hours ago)
Nov-17 @ 06:00 UTC
(3 hours ago)
Nov-18 @ 06:00 UTC
(in 21 hours)
Nov-17 @ 06:00 to Nov-17 @ 19:00
TAF OPSK 170400Z 1706/1806 09008KT 3000 HZ NSC FM 171900 VRB03KT 2000 BR NSC
Wind Visibility Clouds Conditions
90° at 8 knots 2,993 meters
  • No significant clouds
  • Haze
From Nov-17 @ 19:00 to Nov-18 @ 06:00
Wind Visibility Clouds Conditions
Variable at 3 knots 1,996 meters
  • No significant clouds
  • Mist
Temporary Nov-18 @ 01:00 to Nov-18 @ 05:00
TEMPO 1801/1805 00000KT 0800 FG SCT020
Visibility Clouds Conditions
805 meters
  • Scattered at 2,000' AGL
  • Fog
TAF OPSK 170400Z 1706/1806 09008KT 3000 HZ NSC FM 171900 VRB03KT 2000 BR NSC TEMPO 1801/1805 00000KT 0800 FG SCT020
Issued Nov-17 @ 04:00 UTC
(5 hours ago)
Valid From Nov-17 @ 06:00 UTC
(3 hours ago)
Valid To Nov-18 @ 06:00 UTC
(in 21 hours)
Nov-17 @ 06:00 - Nov-17 @ 19:00
Wind Visibility
90° at 8 knots 2,993 meters
Clouds
  • No significant clouds
Conditions
  • Haze
From Nov-17 @ 19:00 - Nov-18 @ 06:00
Wind Visibility
Variable at 3 knots 1,996 meters
Clouds
  • No significant clouds
Conditions
  • Mist
Temporary Nov-18 @ 01:00 - Nov-18 @ 05:00
Clouds
  • Scattered at 2,000' AGL
Conditions
  • Fog